sensor_id;sensor_type;location;lat;lon;timestamp;temperature;humidity
5476;DHT22;2760;50.000;9.194;2023-05-18T00:00:12;10.70;99.90
5476;DHT22;2760;50.000;9.194;2023-05-18T00:02:41;8.50;99.90
5476;DHT22;2760;50.000;9.194;2023-05-18T00:05:10;8.50;99.90
5476;DHT22;2760;50.000;9.194;2023-05-18T00:10:06;8.80;99.50
5476;DHT22;2760;50.000;9.194;2023-05-18T00:15:02;8.80;99.50
5476;DHT22;2760;50.000;9.194;2023-05-18T00:17:29;8.90;99.00
5476;DHT22;2760;50.000;9.194;2023-05-18T00:19:57;10.50;99.80
5476;DHT22;2760;50.000;9.194;2023-05-18T00:22:25;9.00;98.80
5476;DHT22;2760;50.000;9.194;2023-05-18T00:24:52;8.80;98.90
5476;DHT22;2760;50.000;9.194;2023-05-18T00:29:47;8.80;99.00
5476;DHT22;2760;50.000;9.194;2023-05-18T00:39:38;8.30;99.90
5476;DHT22;2760;50.000;9.194;2023-05-18T00:42:05;8.20;99.90
5476;DHT22;2760;50.000;9.194;2023-05-18T00:44:32;8.10;99.90
5476;DHT22;2760;50.000;9.194;2023-05-18T00:49:27;7.90;99.90
5476;DHT22;2760;50.000;9.194;2023-05-18T00:51:54;8.00;99.90
5476;DHT22;2760;50.000;9.194;2023-05-18T00:54:25;8.10;99.90
5476;DHT22;2760;50.000;9.194;2023-05-18T00:56:54;8.00;99.90
5476;DHT22;2760;50.000;9.194;2023-05-18T00:59:27;8.00;99.90
5476;DHT22;2760;50.000;9.194;2023-05-18T01:06:54;8.10;99.90
5476;DHT22;2760;50.000;9.194;2023-05-18T01:09:23;8.00;99.90
5476;DHT22;2760;50.000;9.194;2023-05-18T01:11:58;7.90;99.90
5476;DHT22;2760;50.000;9.194;2023-05-18T01:14:35;7.90;99.90
5476;DHT22;2760;50.000;9.194;2023-05-18T01:17:09;7.90;99.90
5476;DHT22;2760;50.000;9.194;2023-05-18T01:20:14;7.90;99.90
5476;DHT22;2760;50.000;9.194;2023-05-18T01:26:15;7.50;99.90
5476;DHT22;2760;50.000;9.194;2023-05-18T01:28:50;7.70;99.90
5476;DHT22;2760;50.000;9.194;2023-05-18T01:38:40;7.40;99.90
5476;DHT22;2760;50.000;9.194;2023-05-18T01:41:13;7.50;99.90
5476;DHT22;2760;50.000;9.194;2023-05-18T01:43:49;7.30;99.90
5476;DHT22;2760;50.000;9.194;2023-05-18T01:46:27;7.30;99.90
5476;DHT22;2760;50.000;9.194;2023-05-18T01:49:01;6.90;99.90
5476;DHT22;2760;50.000;9.194;2023-05-18T01:51:35;7.10;99.90
5476;DHT22;2760;50.000;9.194;2023-05-18T01:54:06;7.10;99.90
5476;DHT22;2760;50.000;9.194;2023-05-18T01:59:05;6.80;99.90
5476;DHT22;2760;50.000;9.194;2023-05-18T02:01:35;6.80;99.90
5476;DHT22;2760;50.000;9.194;2023-05-18T02:04:07;6.90;99.90
5476;DHT22;2760;50.000;9.194;2023-05-18T02:16:27;6.80;99.90
5476;DHT22;2760;50.000;9.194;2023-05-18T02:23:51;6.80;99.90
5476;DHT22;2760;50.000;9.194;2023-05-18T02:33:49;6.90;99.90
5476;DHT22;2760;50.000;9.194;2023-05-18T02:51:12;6.80;99.90
5476;DHT22;2760;50.000;9.194;2023-05-18T02:53:43;7.00;99.90
5476;DHT22;2760;50.000;9.194;2023-05-18T03:06:28;7.20;99.90
5476;DHT22;2760;50.000;9.194;2023-05-18T03:21:33;6.80;99.90
5476;DHT22;2760;50.000;9.194;2023-05-18T03:24:02;6.90;99.90
5476;DHT22;2760;50.000;9.194;2023-05-18T03:36:28;6.90;99.90
5476;DHT22;2760;50.000;9.194;2023-05-18T03:38:57;6.80;99.90
5476;DHT22;2760;50.000;9.194;2023-05-18T03:53:57;7.00;99.90
5476;DHT22;2760;50.000;9.194;2023-05-18T03:56:26;6.70;99.90
5476;DHT22;2760;50.000;9.194;2023-05-18T04:01:25;6.20;99.90
5476;DHT22;2760;50.000;9.194;2023-05-18T04:11:21;6.40;99.90
5476;DHT22;2760;50.000;9.194;2023-05-18T04:28:46;6.40;99.90
5476;DHT22;2760;50.000;9.194;2023-05-18T04:46:04;6.90;99.90
5476;DHT22;2760;50.000;9.194;2023-05-18T05:03:24;8.00;99.90
5476;DHT22;2760;50.000;9.194;2023-05-18T05:20:38;9.30;99.90
5476;DHT22;2760;50.000;9.194;2023-05-18T05:23:06;9.50;99.90
5476;DHT22;2760;50.000;9.194;2023-05-18T05:33:00;10.30;97.40
5476;DHT22;2760;50.000;9.194;2023-05-18T05:35:27;10.40;97.80
5476;DHT22;2760;50.000;9.194;2023-05-18T05:37:56;10.50;97.50
5476;DHT22;2760;50.000;9.194;2023-05-18T05:40:23;10.50;97.20
5476;DHT22;2760;50.000;9.194;2023-05-18T05:50:21;11.10;96.50
5476;DHT22;2760;50.000;9.194;2023-05-18T05:52:50;10.90;96.20
5476;DHT22;2760;50.000;9.194;2023-05-18T05:55:19;11.10;96.40
5476;DHT22;2760;50.000;9.194;2023-05-18T05:57:47;11.80;96.20
5476;DHT22;2760;50.000;9.194;2023-05-18T06:00:14;13.70;97.40
5476;DHT22;2760;50.000;9.194;2023-05-18T06:05:24;11.60;96.10
5476;DHT22;2760;50.000;9.194;2023-05-18T06:07:52;13.30;97.10
5476;DHT22;2760;50.000;9.194;2023-05-18T06:10:21;13.40;96.50
5476;DHT22;2760;50.000;9.194;2023-05-18T06:12:49;12.40;95.10
5476;DHT22;2760;50.000;9.194;2023-05-18T06:15:17;12.40;94.90
5476;DHT22;2760;50.000;9.194;2023-05-18T06:17:45;12.40;95.10
5476;DHT22;2760;50.000;9.194;2023-05-18T06:20:12;12.40;94.00
5476;DHT22;2760;50.000;9.194;2023-05-18T06:22:40;12.30;94.60
5476;DHT22;2760;50.000;9.194;2023-05-18T06:25:21;12.60;93.80
5476;DHT22;2760;50.000;9.194;2023-05-18T06:28:14;15.10;95.40
5476;DHT22;2760;50.000;9.194;2023-05-18T06:30:53;12.70;94.30
5476;DHT22;2760;50.000;9.194;2023-05-18T06:33:28;12.90;94.10
5476;DHT22;2760;50.000;9.194;2023-05-18T06:35:56;12.80;93.90
5476;DHT22;2760;50.000;9.194;2023-05-18T06:38:23;12.90;94.20
5476;DHT22;2760;50.000;9.194;2023-05-18T06:40:57;13.20;93.40
5476;DHT22;2760;50.000;9.194;2023-05-18T06:46:19;13.00;93.10
5476;DHT22;2760;50.000;9.194;2023-05-18T06:48:48;14.70;94.50
5476;DHT22;2760;50.000;9.194;2023-05-18T06:51:17;13.30;93.90
5476;DHT22;2760;50.000;9.194;2023-05-18T06:53:45;13.30;92.60
5476;DHT22;2760;50.000;9.194;2023-05-18T06:56:15;15.20;94.10
5476;DHT22;2760;50.000;9.194;2023-05-18T06:58:45;15.10;94.10
5476;DHT22;2760;50.000;9.194;2023-05-18T07:01:13;13.50;93.20
5476;DHT22;2760;50.000;9.194;2023-05-18T07:03:42;13.50;93.60
5476;DHT22;2760;50.000;9.194;2023-05-18T07:06:10;13.40;93.50
5476;DHT22;2760;50.000;9.194;2023-05-18T07:08:37;13.70;93.00
5476;DHT22;2760;50.000;9.194;2023-05-18T07:11:05;14.90;93.60
5476;DHT22;2760;50.000;9.194;2023-05-18T07:13:35;13.80;93.10
5476;DHT22;2760;50.000;9.194;2023-05-18T07:16:02;15.60;93.50
5476;DHT22;2760;50.000;9.194;2023-05-18T07:18:30;14.40;93.10
5476;DHT22;2760;50.000;9.194;2023-05-18T07:20:58;14.00;92.10
5476;DHT22;2760;50.000;9.194;2023-05-18T07:23:25;13.90;92.50
5476;DHT22;2760;50.000;9.194;2023-05-18T07:25:53;13.90;92.70
5476;DHT22;2760;50.000;9.194;2023-05-18T07:28:20;16.30;93.60
5476;DHT22;2760;50.000;9.194;2023-05-18T07:30:49;14.40;92.20
5476;DHT22;2760;50.000;9.194;2023-05-18T07:33:16;14.50;91.70
5476;DHT22;2760;50.000;9.194;2023-05-18T07:35:43;14.50;92.50
5476;DHT22;2760;50.000;9.194;2023-05-18T07:38:10;14.70;91.50
5476;DHT22;2760;50.000;9.194;2023-05-18T07:40:38;14.90;91.90
5476;DHT22;2760;50.000;9.194;2023-05-18T07:43:05;14.80;91.70
5476;DHT22;2760;50.000;9.194;2023-05-18T07:45:32;15.00;91.10
5476;DHT22;2760;50.000;9.194;2023-05-18T07:48:01;14.70;91.20
5476;DHT22;2760;50.000;9.194;2023-05-18T07:50:28;14.60;91.80
5476;DHT22;2760;50.000;9.194;2023-05-18T07:52:55;14.90;91.60
5476;DHT22;2760;50.000;9.194;2023-05-18T07:55:23;15.10;91.50
5476;DHT22;2760;50.000;9.194;2023-05-18T07:57:50;15.10;91.50
5476;DHT22;2760;50.000;9.194;2023-05-18T08:00:18;15.20;91.20
5476;DHT22;2760;50.000;9.194;2023-05-18T08:02:45;14.30;90.20
5476;DHT22;2760;50.000;9.194;2023-05-18T08:05:14;15.40;91.20
5476;DHT22;2760;50.000;9.194;2023-05-18T08:07:41;15.60;91.20
5476;DHT22;2760;50.000;9.194;2023-05-18T08:10:14;15.60;91.10
5476;DHT22;2760;50.000;9.194;2023-05-18T08:12:41;15.80;91.20
5476;DHT22;2760;50.000;9.194;2023-05-18T08:15:16;16.00;90.40
5476;DHT22;2760;50.000;9.194;2023-05-18T08:17:43;15.90;90.70
5476;DHT22;2760;50.000;9.194;2023-05-18T08:20:11;16.00;90.90
5476;DHT22;2760;50.000;9.194;2023-05-18T08:22:40;16.40;90.50
5476;DHT22;2760;50.000;9.194;2023-05-18T08:25:09;16.20;90.40
5476;DHT22;2760;50.000;9.194;2023-05-18T08:27:36;16.80;90.40
5476;DHT22;2760;50.000;9.194;2023-05-18T08:30:04;17.00;89.40
5476;DHT22;2760;50.000;9.194;2023-05-18T08:32:31;16.50;90.20
5476;DHT22;2760;50.000;9.194;2023-05-18T08:35:02;16.80;89.60
5476;DHT22;2760;50.000;9.194;2023-05-18T08:37:29;17.00;88.80
5476;DHT22;2760;50.000;9.194;2023-05-18T08:39:57;16.70;90.20
5476;DHT22;2760;50.000;9.194;2023-05-18T08:42:28;17.20;89.60
5476;DHT22;2760;50.000;9.194;2023-05-18T08:45:10;17.50;88.70
5476;DHT22;2760;50.000;9.194;2023-05-18T08:47:38;16.80;88.00
5476;DHT22;2760;50.000;9.194;2023-05-18T08:50:06;17.20;88.50
5476;DHT22;2760;50.000;9.194;2023-05-18T08:52:43;17.30;88.20
5476;DHT22;2760;50.000;9.194;2023-05-18T08:55:15;17.60;89.10
5476;DHT22;2760;50.000;9.194;2023-05-18T08:57:45;18.00;87.90
5476;DHT22;2760;50.000;9.194;2023-05-18T09:00:15;18.20;87.40
5476;DHT22;2760;50.000;9.194;2023-05-18T09:02:43;18.20;87.90
5476;DHT22;2760;50.000;9.194;2023-05-18T09:05:12;17.60;87.70
5476;DHT22;2760;50.000;9.194;2023-05-18T09:07:40;15.50;84.30
5476;DHT22;2760;50.000;9.194;2023-05-18T09:10:09;17.30;88.80
5476;DHT22;2760;50.000;9.194;2023-05-18T09:12:41;17.40;87.80
5476;DHT22;2760;50.000;9.194;2023-05-18T09:15:12;17.50;87.00
5476;DHT22;2760;50.000;9.194;2023-05-18T09:17:39;17.40;86.40
5476;DHT22;2760;50.000;9.194;2023-05-18T09:20:07;17.10;88.00
5476;DHT22;2760;50.000;9.194;2023-05-18T09:22:35;17.30;85.90
5476;DHT22;2760;50.000;9.194;2023-05-18T09:25:07;17.30;85.30
5476;DHT22;2760;50.000;9.194;2023-05-18T09:27:35;17.80;85.80
5476;DHT22;2760;50.000;9.194;2023-05-18T09:30:10;17.50;84.70
5476;DHT22;2760;50.000;9.194;2023-05-18T09:32:37;17.30;85.70
5476;DHT22;2760;50.000;9.194;2023-05-18T09:35:05;17.60;84.30
5476;DHT22;2760;50.000;9.194;2023-05-18T09:37:33;17.90;83.30
5476;DHT22;2760;50.000;9.194;2023-05-18T09:40:02;17.40;83.70
5476;DHT22;2760;50.000;9.194;2023-05-18T09:42:38;17.90;84.00
5476;DHT22;2760;50.000;9.194;2023-05-18T09:45:16;18.50;82.80
5476;DHT22;2760;50.000;9.194;2023-05-18T09:47:44;17.70;83.40
5476;DHT22;2760;50.000;9.194;2023-05-18T09:50:11;18.20;82.90
5476;DHT22;2760;50.000;9.194;2023-05-18T09:52:42;17.80;81.70
5476;DHT22;2760;50.000;9.194;2023-05-18T09:55:10;18.30;81.90
5476;DHT22;2760;50.000;9.194;2023-05-18T09:57:39;18.50;83.30
5476;DHT22;2760;50.000;9.194;2023-05-18T10:00:07;18.70;82.70
5476;DHT22;2760;50.000;9.194;2023-05-18T10:02:41;18.60;81.40
5476;DHT22;2760;50.000;9.194;2023-05-18T10:05:19;18.90;80.60
5476;DHT22;2760;50.000;9.194;2023-05-18T10:07:46;18.90;81.10
5476;DHT22;2760;50.000;9.194;2023-05-18T10:10:17;18.70;83.40
5476;DHT22;2760;50.000;9.194;2023-05-18T10:12:46;19.20;81.80
5476;DHT22;2760;50.000;9.194;2023-05-18T10:15:14;19.40;81.50
5476;DHT22;2760;50.000;9.194;2023-05-18T10:17:43;18.70;82.90
5476;DHT22;2760;50.000;9.194;2023-05-18T10:20:15;19.00;81.50
5476;DHT22;2760;50.000;9.194;2023-05-18T10:22:45;19.80;79.90
5476;DHT22;2760;50.000;9.194;2023-05-18T10:25:17;19.70;79.60
5476;DHT22;2760;50.000;9.194;2023-05-18T10:27:47;19.80;77.90
5476;DHT22;2760;50.000;9.194;2023-05-18T10:30:15;19.90;77.50
5476;DHT22;2760;50.000;9.194;2023-05-18T10:32:44;20.10;77.80
5476;DHT22;2760;50.000;9.194;2023-05-18T10:35:14;20.00;77.50
5476;DHT22;2760;50.000;9.194;2023-05-18T10:37:45;20.70;77.40
5476;DHT22;2760;50.000;9.194;2023-05-18T10:40:16;20.50;77.40
5476;DHT22;2760;50.000;9.194;2023-05-18T10:42:44;20.80;76.30
5476;DHT22;2760;50.000;9.194;2023-05-18T10:45:13;20.70;78.50
5476;DHT22;2760;50.000;9.194;2023-05-18T10:47:43;20.10;77.70
5476;DHT22;2760;50.000;9.194;2023-05-18T10:50:10;19.90;78.10
5476;DHT22;2760;50.000;9.194;2023-05-18T10:52:39;20.50;79.00
5476;DHT22;2760;50.000;9.194;2023-05-18T10:55:07;20.70;79.50
5476;DHT22;2760;50.000;9.194;2023-05-18T10:57:38;19.60;76.00
5476;DHT22;2760;50.000;9.194;2023-05-18T11:00:08;21.90;76.60
5476;DHT22;2760;50.000;9.194;2023-05-18T11:02:36;21.70;76.40
5476;DHT22;2760;50.000;9.194;2023-05-18T11:05:10;21.00;77.30
5476;DHT22;2760;50.000;9.194;2023-05-18T11:07:38;21.10;77.40
5476;DHT22;2760;50.000;9.194;2023-05-18T11:10:09;21.30;76.40
5476;DHT22;2760;50.000;9.194;2023-05-18T11:12:39;21.30;78.80
5476;DHT22;2760;50.000;9.194;2023-05-18T11:15:08;22.80;77.40
5476;DHT22;2760;50.000;9.194;2023-05-18T11:17:35;20.70;75.60
5476;DHT22;2760;50.000;9.194;2023-05-18T11:20:15;20.40;77.10
5476;DHT22;2760;50.000;9.194;2023-05-18T11:22:48;21.00;76.90
5476;DHT22;2760;50.000;9.194;2023-05-18T11:25:35;20.70;77.10
5476;DHT22;2760;50.000;9.194;2023-05-18T11:28:04;20.30;76.60
5476;DHT22;2760;50.000;9.194;2023-05-18T11:30:46;18.80;75.10
5476;DHT22;2760;50.000;9.194;2023-05-18T11:33:16;20.70;76.30
5476;DHT22;2760;50.000;9.194;2023-05-18T11:36:00;20.90;77.20
5476;DHT22;2760;50.000;9.194;2023-05-18T11:38:46;21.20;75.60
5476;DHT22;2760;50.000;9.194;2023-05-18T11:41:29;20.40;76.40
5476;DHT22;2760;50.000;9.194;2023-05-18T11:46:53;20.50;75.30
5476;DHT22;2760;50.000;9.194;2023-05-18T11:49:22;20.70;75.50
5476;DHT22;2760;50.000;9.194;2023-05-18T11:52:01;20.50;75.90
5476;DHT22;2760;50.000;9.194;2023-05-18T11:54:32;20.00;75.00
5476;DHT22;2760;50.000;9.194;2023-05-18T11:57:00;20.10;77.70
5476;DHT22;2760;50.000;9.194;2023-05-18T11:59:30;20.30;76.80
5476;DHT22;2760;50.000;9.194;2023-05-18T12:02:01;21.10;75.80
5476;DHT22;2760;50.000;9.194;2023-05-18T12:04:33;21.20;75.50
5476;DHT22;2760;50.000;9.194;2023-05-18T12:07:05;20.80;75.80
5476;DHT22;2760;50.000;9.194;2023-05-18T12:09:33;20.60;76.50
5476;DHT22;2760;50.000;9.194;2023-05-18T12:12:00;21.10;75.70
5476;DHT22;2760;50.000;9.194;2023-05-18T12:14:31;21.20;74.40
5476;DHT22;2760;50.000;9.194;2023-05-18T12:17:00;21.10;75.50
5476;DHT22;2760;50.000;9.194;2023-05-18T12:19:27;21.10;74.60
5476;DHT22;2760;50.000;9.194;2023-05-18T12:21:55;21.30;74.40
5476;DHT22;2760;50.000;9.194;2023-05-18T12:24:23;21.30;73.60
5476;DHT22;2760;50.000;9.194;2023-05-18T12:26:51;21.20;77.70
5476;DHT22;2760;50.000;9.194;2023-05-18T12:29:20;20.10;73.60
5476;DHT22;2760;50.000;9.194;2023-05-18T12:31:48;21.40;76.00
5476;DHT22;2760;50.000;9.194;2023-05-18T12:34:16;21.70;74.30
5476;DHT22;2760;50.000;9.194;2023-05-18T12:36:51;21.50;75.20
5476;DHT22;2760;50.000;9.194;2023-05-18T12:39:25;18.60;73.20
5476;DHT22;2760;50.000;9.194;2023-05-18T12:41:52;20.80;75.60
5476;DHT22;2760;50.000;9.194;2023-05-18T12:44:21;21.00;74.90
5476;DHT22;2760;50.000;9.194;2023-05-18T12:46:48;20.90;73.80
5476;DHT22;2760;50.000;9.194;2023-05-18T12:49:17;21.40;74.30
5476;DHT22;2760;50.000;9.194;2023-05-18T12:51:44;21.50;73.50
5476;DHT22;2760;50.000;9.194;2023-05-18T12:54:12;21.60;73.20
5476;DHT22;2760;50.000;9.194;2023-05-18T12:56:50;21.20;73.60
5476;DHT22;2760;50.000;9.194;2023-05-18T12:59:18;21.70;72.90
5476;DHT22;2760;50.000;9.194;2023-05-18T13:01:45;23.00;74.00
5476;DHT22;2760;50.000;9.194;2023-05-18T13:04:13;22.80;74.20
5476;DHT22;2760;50.000;9.194;2023-05-18T13:06:41;21.30;73.60
5476;DHT22;2760;50.000;9.194;2023-05-18T13:09:11;19.60;72.90
5476;DHT22;2760;50.000;9.194;2023-05-18T13:11:39;21.50;74.50
5476;DHT22;2760;50.000;9.194;2023-05-18T13:14:08;21.90;72.50
5476;DHT22;2760;50.000;9.194;2023-05-18T13:16:44;22.00;72.80
5476;DHT22;2760;50.000;9.194;2023-05-18T13:19:15;21.40;72.90
5476;DHT22;2760;50.000;9.194;2023-05-18T13:21:46;21.30;72.60
5476;DHT22;2760;50.000;9.194;2023-05-18T13:24:20;23.50;74.30
5476;DHT22;2760;50.000;9.194;2023-05-18T13:26:47;22.00;72.20
5476;DHT22;2760;50.000;9.194;2023-05-18T13:31:57;21.50;71.40
5476;DHT22;2760;50.000;9.194;2023-05-18T13:34:24;21.50;72.00
5476;DHT22;2760;50.000;9.194;2023-05-18T13:36:53;21.40;70.60
5476;DHT22;2760;50.000;9.194;2023-05-18T13:39:19;21.40;72.10
5476;DHT22;2760;50.000;9.194;2023-05-18T13:41:47;21.20;71.90
5476;DHT22;2760;50.000;9.194;2023-05-18T13:44:14;21.40;73.60
5476;DHT22;2760;50.000;9.194;2023-05-18T13:46:42;21.20;72.60
5476;DHT22;2760;50.000;9.194;2023-05-18T13:49:11;21.50;71.30
5476;DHT22;2760;50.000;9.194;2023-05-18T13:51:38;21.40;71.70
5476;DHT22;2760;50.000;9.194;2023-05-18T13:54:05;21.30;74.20
5476;DHT22;2760;50.000;9.194;2023-05-18T13:56:33;20.90;73.00
5476;DHT22;2760;50.000;9.194;2023-05-18T13:59:00;21.20;72.80
5476;DHT22;2760;50.000;9.194;2023-05-18T14:01:28;21.30;72.60
5476;DHT22;2760;50.000;9.194;2023-05-18T14:03:59;21.60;73.30
5476;DHT22;2760;50.000;9.194;2023-05-18T14:06:29;21.10;72.70
5476;DHT22;2760;50.000;9.194;2023-05-18T14:08:57;21.00;73.50
5476;DHT22;2760;50.000;9.194;2023-05-18T14:11:24;21.00;73.90
5476;DHT22;2760;50.000;9.194;2023-05-18T14:13:51;20.80;73.70
5476;DHT22;2760;50.000;9.194;2023-05-18T14:16:18;20.70;73.80
5476;DHT22;2760;50.000;9.194;2023-05-18T14:18:45;20.80;72.20
5476;DHT22;2760;50.000;9.194;2023-05-18T14:21:14;21.10;73.70
5476;DHT22;2760;50.000;9.194;2023-05-18T14:23:46;21.70;74.00
5476;DHT22;2760;50.000;9.194;2023-05-18T14:26:14;21.40;73.20
5476;DHT22;2760;50.000;9.194;2023-05-18T14:28:41;20.50;74.20
5476;DHT22;2760;50.000;9.194;2023-05-18T14:31:09;20.30;73.70
5476;DHT22;2760;50.000;9.194;2023-05-18T14:33:36;20.00;74.60
5476;DHT22;2760;50.000;9.194;2023-05-18T14:36:04;19.30;74.60
5476;DHT22;2760;50.000;9.194;2023-05-18T14:38:32;20.20;74.30
5476;DHT22;2760;50.000;9.194;2023-05-18T14:41:02;20.50;74.10
5476;DHT22;2760;50.000;9.194;2023-05-18T14:43:29;20.60;74.10
5476;DHT22;2760;50.000;9.194;2023-05-18T14:45:57;19.20;72.60
5476;DHT22;2760;50.000;9.194;2023-05-18T14:48:25;20.50;73.60
5476;DHT22;2760;50.000;9.194;2023-05-18T14:50:53;20.10;74.90
5476;DHT22;2760;50.000;9.194;2023-05-18T14:53:21;20.40;74.30
5476;DHT22;2760;50.000;9.194;2023-05-18T14:55:48;20.40;74.40
5476;DHT22;2760;50.000;9.194;2023-05-18T14:58:17;20.10;75.00
5476;DHT22;2760;50.000;9.194;2023-05-18T15:00:44;20.00;74.20
5476;DHT22;2760;50.000;9.194;2023-05-18T15:03:11;20.00;76.50
5476;DHT22;2760;50.000;9.194;2023-05-18T15:05:38;20.20;74.90
5476;DHT22;2760;50.000;9.194;2023-05-18T15:08:06;20.00;75.20
5476;DHT22;2760;50.000;9.194;2023-05-18T15:10:35;20.30;75.90
5476;DHT22;2760;50.000;9.194;2023-05-18T15:13:04;20.20;75.60
5476;DHT22;2760;50.000;9.194;2023-05-18T15:15:34;20.10;75.10
5476;DHT22;2760;50.000;9.194;2023-05-18T15:18:01;20.10;75.10
5476;DHT22;2760;50.000;9.194;2023-05-18T15:20:28;19.90;74.90
5476;DHT22;2760;50.000;9.194;2023-05-18T15:22:56;20.00;75.30
5476;DHT22;2760;50.000;9.194;2023-05-18T15:25:24;19.70;76.00
5476;DHT22;2760;50.000;9.194;2023-05-18T15:27:51;19.50;75.20
5476;DHT22;2760;50.000;9.194;2023-05-18T15:30:21;19.60;76.20
5476;DHT22;2760;50.000;9.194;2023-05-18T15:32:51;19.40;76.30
5476;DHT22;2760;50.000;9.194;2023-05-18T15:35:20;19.50;76.30
5476;DHT22;2760;50.000;9.194;2023-05-18T15:37:47;19.70;75.80
5476;DHT22;2760;50.000;9.194;2023-05-18T15:40:16;19.60;75.20
5476;DHT22;2760;50.000;9.194;2023-05-18T15:42:43;19.70;74.50
5476;DHT22;2760;50.000;9.194;2023-05-18T15:45:11;19.40;74.90
5476;DHT22;2760;50.000;9.194;2023-05-18T15:47:38;19.10;74.70
5476;DHT22;2760;50.000;9.194;2023-05-18T15:50:08;19.20;75.40
5476;DHT22;2760;50.000;9.194;2023-05-18T15:52:35;19.20;75.40
5476;DHT22;2760;50.000;9.194;2023-05-18T15:55:02;19.20;75.40
5476;DHT22;2760;50.000;9.194;2023-05-18T15:57:30;19.30;75.50
5476;DHT22;2760;50.000;9.194;2023-05-18T15:59:57;19.30;75.50
5476;DHT22;2760;50.000;9.194;2023-05-18T16:02:24;19.50;75.30
5476;DHT22;2760;50.000;9.194;2023-05-18T16:04:51;19.30;74.70
5476;DHT22;2760;50.000;9.194;2023-05-18T16:07:20;19.20;75.00
5476;DHT22;2760;50.000;9.194;2023-05-18T16:09:47;19.10;75.40
5476;DHT22;2760;50.000;9.194;2023-05-18T16:12:14;19.20;75.70
5476;DHT22;2760;50.000;9.194;2023-05-18T16:14:41;19.20;72.70
5476;DHT22;2760;50.000;9.194;2023-05-18T16:17:08;19.20;73.30
5476;DHT22;2760;50.000;9.194;2023-05-18T16:19:35;19.30;74.20
5476;DHT22;2760;50.000;9.194;2023-05-18T16:22:04;19.20;73.80
5476;DHT22;2760;50.000;9.194;2023-05-18T16:24:35;19.10;73.00
5476;DHT22;2760;50.000;9.194;2023-05-18T16:27:02;19.10;73.30
5476;DHT22;2760;50.000;9.194;2023-05-18T16:29:30;19.20;73.10
5476;DHT22;2760;50.000;9.194;2023-05-18T16:31:58;19.20;72.80
5476;DHT22;2760;50.000;9.194;2023-05-18T16:34:25;19.20;73.80
5476;DHT22;2760;50.000;9.194;2023-05-18T16:36:53;19.30;74.00
5476;DHT22;2760;50.000;9.194;2023-05-18T16:39:20;19.20;74.10
5476;DHT22;2760;50.000;9.194;2023-05-18T16:41:49;19.00;74.90
5476;DHT22;2760;50.000;9.194;2023-05-18T16:44:17;18.90;75.40
5476;DHT22;2760;50.000;9.194;2023-05-18T16:46:45;18.90;75.40
5476;DHT22;2760;50.000;9.194;2023-05-18T16:49:13;18.90;75.10
5476;DHT22;2760;50.000;9.194;2023-05-18T16:51:40;18.80;75.40
5476;DHT22;2760;50.000;9.194;2023-05-18T16:54:08;18.80;75.70
5476;DHT22;2760;50.000;9.194;2023-05-18T16:56:35;18.80;75.60
5476;DHT22;2760;50.000;9.194;2023-05-18T16:59:04;18.90;75.60
5476;DHT22;2760;50.000;9.194;2023-05-18T17:01:31;18.80;73.90
5476;DHT22;2760;50.000;9.194;2023-05-18T17:03:58;18.60;75.00
5476;DHT22;2760;50.000;9.194;2023-05-18T17:06:26;18.70;75.80
5476;DHT22;2760;50.000;9.194;2023-05-18T17:08:56;18.70;75.60
5476;DHT22;2760;50.000;9.194;2023-05-18T17:11:25;18.70;76.20
5476;DHT22;2760;50.000;9.194;2023-05-18T17:13:52;18.80;75.90
5476;DHT22;2760;50.000;9.194;2023-05-18T17:16:21;18.80;76.60
5476;DHT22;2760;50.000;9.194;2023-05-18T17:18:49;18.70;77.80
5476;DHT22;2760;50.000;9.194;2023-05-18T17:21:17;18.60;76.50
5476;DHT22;2760;50.000;9.194;2023-05-18T17:23:46;18.50;77.10
5476;DHT22;2760;50.000;9.194;2023-05-18T17:26:14;18.60;77.20
5476;DHT22;2760;50.000;9.194;2023-05-18T17:28:41;18.50;76.90
5476;DHT22;2760;50.000;9.194;2023-05-18T17:31:09;18.60;77.40
5476;DHT22;2760;50.000;9.194;2023-05-18T17:33:38;18.40;76.60
5476;DHT22;2760;50.000;9.194;2023-05-18T17:36:27;18.40;76.80
5476;DHT22;2760;50.000;9.194;2023-05-18T17:38:59;19.00;77.80
5476;DHT22;2760;50.000;9.194;2023-05-18T17:41:32;18.30;77.60
5476;DHT22;2760;50.000;9.194;2023-05-18T17:44:29;18.30;76.70
5476;DHT22;2760;50.000;9.194;2023-05-18T17:47:37;18.40;77.00
5476;DHT22;2760;50.000;9.194;2023-05-18T17:50:18;18.20;78.30
5476;DHT22;2760;50.000;9.194;2023-05-18T17:53:43;18.10;78.20
5476;DHT22;2760;50.000;9.194;2023-05-18T17:56:11;17.90;79.90
5476;DHT22;2760;50.000;9.194;2023-05-18T17:58:41;17.90;80.00
5476;DHT22;2760;50.000;9.194;2023-05-18T18:01:13;18.00;79.60
5476;DHT22;2760;50.000;9.194;2023-05-18T18:03:40;18.00;79.50
5476;DHT22;2760;50.000;9.194;2023-05-18T18:06:08;17.90;80.20
5476;DHT22;2760;50.000;9.194;2023-05-18T18:08:36;17.90;79.90
5476;DHT22;2760;50.000;9.194;2023-05-18T18:11:03;18.00;80.40
5476;DHT22;2760;50.000;9.194;2023-05-18T18:13:34;17.90;79.20
5476;DHT22;2760;50.000;9.194;2023-05-18T18:16:04;17.80;79.10
5476;DHT22;2760;50.000;9.194;2023-05-18T18:18:31;17.80;79.30
5476;DHT22;2760;50.000;9.194;2023-05-18T18:21:00;17.80;79.50
5476;DHT22;2760;50.000;9.194;2023-05-18T18:23:29;17.70;79.50
5476;DHT22;2760;50.000;9.194;2023-05-18T18:25:58;17.70;80.10
5476;DHT22;2760;50.000;9.194;2023-05-18T18:28:30;17.60;79.70
5476;DHT22;2760;50.000;9.194;2023-05-18T18:30:59;17.70;79.40
5476;DHT22;2760;50.000;9.194;2023-05-18T18:33:26;17.50;79.40
5476;DHT22;2760;50.000;9.194;2023-05-18T18:35:59;17.50;79.70
5476;DHT22;2760;50.000;9.194;2023-05-18T18:38:37;17.30;79.70
5476;DHT22;2760;50.000;9.194;2023-05-18T18:41:10;17.30;80.60
5476;DHT22;2760;50.000;9.194;2023-05-18T18:43:41;17.40;80.70
5476;DHT22;2760;50.000;9.194;2023-05-18T18:46:11;17.30;81.40
5476;DHT22;2760;50.000;9.194;2023-05-18T18:48:41;17.10;81.50
5476;DHT22;2760;50.000;9.194;2023-05-18T18:51:09;17.10;82.20
5476;DHT22;2760;50.000;9.194;2023-05-18T18:53:39;17.10;82.30
5476;DHT22;2760;50.000;9.194;2023-05-18T18:56:07;16.00;80.20
5476;DHT22;2760;50.000;9.194;2023-05-18T18:58:34;16.90;82.60
5476;DHT22;2760;50.000;9.194;2023-05-18T19:01:01;16.90;83.80
5476;DHT22;2760;50.000;9.194;2023-05-18T19:03:29;16.90;84.50
5476;DHT22;2760;50.000;9.194;2023-05-18T19:05:57;16.60;82.60
5476;DHT22;2760;50.000;9.194;2023-05-18T19:08:26;17.40;83.70
5476;DHT22;2760;50.000;9.194;2023-05-18T19:10:57;16.60;83.10
5476;DHT22;2760;50.000;9.194;2023-05-18T19:13:25;15.00;82.00
5476;DHT22;2760;50.000;9.194;2023-05-18T19:15:52;16.40;83.10
5476;DHT22;2760;50.000;9.194;2023-05-18T19:21:21;16.40;83.80
5476;DHT22;2760;50.000;9.194;2023-05-18T19:24:07;14.10;82.80
5476;DHT22;2760;50.000;9.194;2023-05-18T19:27:18;14.10;81.90
5476;DHT22;2760;50.000;9.194;2023-05-18T19:29:51;16.80;84.80
5476;DHT22;2760;50.000;9.194;2023-05-18T19:32:19;17.10;87.10
5476;DHT22;2760;50.000;9.194;2023-05-18T19:34:51;16.20;86.20
5476;DHT22;2760;50.000;9.194;2023-05-18T19:37:18;16.10;86.20
5476;DHT22;2760;50.000;9.194;2023-05-18T19:39:45;16.10;86.30
5476;DHT22;2760;50.000;9.194;2023-05-18T19:42:21;16.10;86.20
5476;DHT22;2760;50.000;9.194;2023-05-18T19:44:48;16.00;86.10
5476;DHT22;2760;50.000;9.194;2023-05-18T19:47:17;15.90;85.50
5476;DHT22;2760;50.000;9.194;2023-05-18T19:49:48;15.90;86.10
5476;DHT22;2760;50.000;9.194;2023-05-18T19:55:21;15.80;85.60
5476;DHT22;2760;50.000;9.194;2023-05-18T20:03:26;15.60;87.00
5476;DHT22;2760;50.000;9.194;2023-05-18T20:08:33;15.30;86.70